Time;durP1;ratioP1;P1;durP2;ratioP2;P2;SDS_P1;SDS_P2;PMS_P1;PMS_P2;Temp;Humidity;BMP_temperature;BMP_pressure;BME280_temperature;BME280_humidity;BME280_pressure;Samples;Min_cycle;Max_cycle;Signal;HPM_P1;HPM_P2
2022/04/19 00:00:27;;;;;;;4.35;3.10;;;7.60;1.00;;;;;;5022301;28;20281;-76
2022/04/19 00:02:54;;;;;;;4.80;2.97;;;7.60;1.00;;;;;;5015366;28;20242;-78
2022/04/19 00:05:20;;;;;;;5.25;3.33;;;7.60;1.00;;;;;;5021507;28;20231;-78
2022/04/19 00:07:47;;;;;;;5.32;3.40;;;7.50;1.00;;;;;;5019119;28;20298;-79
2022/04/19 00:10:20;;;;;;;4.35;2.97;;;7.60;1.00;;;;;;5022706;28;20258;-79
2022/04/19 00:12:47;;;;;;;4.18;2.90;;;7.60;1.00;;;;;;5019590;28;20292;-79
2022/04/19 00:15:15;;;;;;;4.38;3.00;;;7.50;1.00;;;;;;5022568;28;20295;-79
2022/04/19 00:17:43;;;;;;;5.68;3.13;;;7.50;1.00;;;;;;5018825;28;20269;-78
2022/04/19 00:20:11;;;;;;;4.10;3.05;;;7.50;1.00;;;;;;5015933;28;20288;-78
2022/04/19 00:22:40;;;;;;;3.95;3.00;;;7.50;1.00;;;;;;5019573;28;20230;-78
2022/04/19 00:25:08;;;;;;;4.88;3.08;;;7.50;1.00;;;;;;5020221;28;20265;-78
2022/04/19 00:27:38;;;;;;;4.47;2.97;;;7.60;1.00;;;;;;5018666;28;20242;-78
2022/04/19 00:30:06;;;;;;;5.32;2.95;;;7.60;1.00;;;;;;5022355;28;20246;-78
2022/04/19 00:32:33;;;;;;;3.80;3.30;;;7.60;1.00;;;;;;5023534;28;20242;-77
2022/04/19 00:35:00;;;;;;;5.80;3.08;;;7.60;1.00;;;;;;5023300;28;20231;-78
2022/04/19 00:37:27;;;;;;;5.97;2.75;;;7.60;1.00;;;;;;5024938;28;20226;-79
2022/04/19 00:39:57;;;;;;;5.95;3.30;;;7.60;1.00;;;;;;5026763;28;20278;-79
2022/04/19 00:42:28;;;;;;;4.50;3.00;;;7.60;1.00;;;;;;4991135;28;20249;-77
2022/04/19 00:45:02;;;;;;;4.22;2.53;;;7.60;1.00;;;;;;5019888;28;20336;-79
2022/04/19 00:47:32;;;;;;;4.93;2.80;;;7.60;1.00;;;;;;5025608;28;20222;-75
2022/04/19 00:50:02;;;;;;;4.38;3.10;;;7.60;1.00;;;;;;5018105;28;20257;-79
2022/04/19 00:52:32;;;;;;;4.00;2.70;;;7.50;1.00;;;;;;4998774;28;20330;-77
2022/04/19 00:55:04;;;;;;;4.97;2.67;;;7.50;1.00;;;;;;5047743;22;20276;-79
2022/04/19 00:57:44;;;;;;;4.68;3.03;;;7.40;1.00;;;;;;5049517;28;20305;-78
2022/04/19 01:00:19;;;;;;;4.85;3.60;;;7.30;1.00;;;;;;5055399;28;20236;-78
2022/04/19 01:02:50;;;;;;;4.93;2.80;;;7.30;1.00;;;;;;5073103;28;20534;-80
2022/04/19 01:05:18;;;;;;;4.80;2.80;;;7.20;1.00;;;;;;5070542;28;20244;-80
2022/04/19 01:07:50;;;;;;;4.93;3.13;;;7.20;1.00;;;;;;5060800;28;20363;-78
2022/04/19 01:10:19;;;;;;;4.13;2.90;;;7.10;1.00;;;;;;5071796;28;20947;-78
2022/04/19 01:15:32;;;;;;;4.85;3.40;;;7.00;1.00;;;;;;5049027;28;20235;-79
2022/04/19 01:18:01;;;;;;;4.40;2.75;;;6.90;1.00;;;;;;5057028;28;20450;-78
2022/04/19 01:20:29;;;;;;;5.25;3.33;;;6.90;1.00;;;;;;5062924;28;20241;-77
2022/04/19 01:23:01;;;;;;;6.15;2.80;;;6.90;1.00;;;;;;5061865;28;20247;-77
2022/04/19 01:25:28;;;;;;;4.95;2.97;;;6.90;1.00;;;;;;5053674;28;20257;-78
2022/04/19 01:28:02;;;;;;;5.47;3.35;;;6.80;1.00;;;;;;5067344;28;20283;-78
2022/04/19 01:30:28;;;;;;;4.30;2.67;;;6.80;1.00;;;;;;5053619;28;20256;-79
2022/04/19 01:32:56;;;;;;;4.80;2.70;;;6.80;1.00;;;;;;5081115;28;20247;-76
2022/04/19 01:35:24;;;;;;;6.20;3.25;;;6.70;1.00;;;;;;5078135;28;20317;-80
2022/04/19 01:37:51;;;;;;;5.07;3.10;;;6.60;1.00;;;;;;5075294;28;20217;-79
2022/04/19 01:40:20;;;;;;;5.55;2.78;;;6.60;1.00;;;;;;5078873;28;20243;-78
2022/04/19 01:42:48;;;;;;;4.85;3.13;;;6.60;1.00;;;;;;5071284;28;20249;-78
2022/04/19 01:45:23;;;;;;;4.82;3.08;;;6.70;1.00;;;;;;5062496;28;20930;-79
2022/04/19 01:47:50;;;;;;;5.05;3.35;;;6.70;1.00;;;;;;5059181;28;20233;-78
2022/04/19 01:50:21;;;;;;;5.03;3.20;;;6.70;1.00;;;;;;5065722;28;20260;-79
2022/04/19 01:52:49;;;;;;;4.32;2.83;;;6.70;1.00;;;;;;5061672;28;20310;-76
2022/04/19 01:55:20;;;;;;;4.80;2.80;;;6.80;1.00;;;;;;5039223;28;20277;-79
2022/04/19 01:57:52;;;;;;;5.28;3.20;;;6.80;1.00;;;;;;5046514;28;20229;-78
2022/04/19 02:00:19;;;;;;;5.30;3.17;;;6.90;1.00;;;;;;5058276;28;20245;-78
2022/04/19 02:02:51;;;;;;;5.70;3.38;;;6.90;1.00;;;;;;5050651;28;20275;-78
2022/04/19 02:05:32;;;;;;;6.15;2.83;;;6.90;1.00;;;;;;5046651;22;20244;-79
2022/04/19 02:08:02;;;;;;;5.22;2.55;;;7.00;1.00;;;;;;4995176;28;20238;-79
2022/04/19 02:10:32;;;;;;;6.80;3.22;;;7.00;1.00;;;;;;4992308;28;20730;-77
2022/04/19 02:13:02;;;;;;;6.47;3.50;;;7.10;1.00;;;;;;5017473;28;20245;-78
2022/04/19 02:15:28;;;;;;;3.90;2.70;;;7.00;1.00;;;;;;5007745;28;20323;-77
2022/04/19 02:17:55;;;;;;;5.60;3.28;;;7.00;1.00;;;;;;4993517;28;20802;-77
2022/04/19 02:20:21;;;;;;;5.45;2.65;;;7.00;1.00;;;;;;5027670;28;20324;-77
2022/04/19 02:22:51;;;;;;;6.10;2.90;;;7.00;1.00;;;;;;5040981;28;20272;-78
2022/04/19 02:25:24;;;;;;;5.57;2.80;;;7.00;1.00;;;;;;5052779;22;20572;-81
2022/04/19 02:27:52;;;;;;;4.65;2.78;;;7.00;1.00;;;;;;5021903;28;20291;-78
2022/04/19 02:30:21;;;;;;;4.80;3.50;;;6.90;1.00;;;;;;5007275;28;20238;-77
2022/04/19 02:32:51;;;;;;;5.40;3.70;;;6.90;1.00;;;;;;5003376;28;20235;-78
2022/04/19 02:35:26;;;;;;;4.93;3.08;;;6.90;1.00;;;;;;5009967;23;20246;-80
2022/04/19 02:37:57;;;;;;;4.90;3.08;;;6.80;1.00;;;;;;5005399;28;21200;-76
2022/04/19 02:40:29;;;;;;;4.93;3.13;;;6.80;1.00;;;;;;5033300;28;20243;-78
2022/04/19 02:42:59;;;;;;;6.82;4.93;;;6.90;1.00;;;;;;5029169;28;21051;-78
2022/04/19 02:45:32;;;;;;;5.35;3.53;;;6.80;1.00;;;;;;5032758;22;20230;-77
2022/04/19 02:48:03;;;;;;;6.32;3.63;;;6.80;1.00;;;;;;5022150;28;20234;-76
2022/04/19 02:50:31;;;;;;;6.45;3.05;;;6.80;1.00;;;;;;5023553;28;20241;-79
2022/04/19 02:53:04;;;;;;;6.55;3.90;;;6.70;1.00;;;;;;5020316;28;20299;-78
2022/04/19 02:55:30;;;;;;;7.97;3.67;;;6.60;1.00;;;;;;5027268;28;20843;-76
2022/04/19 02:57:59;;;;;;;6.35;3.25;;;6.50;1.00;;;;;;5012636;28;20270;-79
2022/04/19 03:00:30;;;;;;;4.78;3.33;;;6.40;1.00;;;;;;4990049;28;20239;-78
2022/04/19 03:02:57;;;;;;;8.77;4.43;;;6.40;1.00;;;;;;4997666;28;20334;-77
2022/04/19 03:05:24;;;;;;;6.95;3.83;;;6.30;1.00;;;;;;5018332;22;20848;-79
2022/04/19 03:07:52;;;;;;;5.25;2.85;;;6.30;1.00;;;;;;4998128;28;25404;-78
2022/04/19 03:10:22;;;;;;;6.53;3.38;;;6.20;1.00;;;;;;5025655;28;20228;-80
2022/04/19 03:12:51;;;;;;;5.20;3.20;;;6.20;1.00;;;;;;5062451;28;20233;-78
2022/04/19 03:15:22;;;;;;;4.97;3.28;;;6.10;1.00;;;;;;5044158;28;20226;-78
2022/04/19 03:17:52;;;;;;;5.90;3.40;;;6.10;1.00;;;;;;5052067;28;20257;-77
2022/04/19 03:20:22;;;;;;;7.05;3.70;;;6.00;1.00;;;;;;5046794;28;20222;-76
2022/04/19 03:28:25;;;;;;;5.85;3.05;;;6.00;1.00;;;;;;5043299;28;20229;-79
2022/04/19 03:30:53;;;;;;;6.35;3.50;;;6.00;1.00;;;;;;5040358;28;20325;-78
2022/04/19 03:33:21;;;;;;;4.75;3.30;;;5.90;1.00;;;;;;5046485;28;20250;-78
2022/04/19 03:35:48;;;;;;;6.28;3.67;;;5.90;1.00;;;;;;5045503;28;20280;-79
2022/04/19 03:38:14;;;;;;;6.20;4.40;;;5.90;1.00;;;;;;5037880;28;20237;-77
2022/04/19 03:40:41;;;;;;;5.10;3.15;;;5.90;1.00;;;;;;5021167;28;20239;-79
2022/04/19 03:43:08;;;;;;;6.65;3.83;;;5.80;1.00;;;;;;5036439;28;20280;-78
2022/04/19 03:45:34;;;;;;;6.78;3.70;;;5.80;1.00;;;;;;5019825;28;20269;-76
2022/04/19 03:48:04;;;;;;;6.65;3.80;;;5.80;1.00;;;;;;5029652;28;20304;-79
2022/04/19 03:50:31;;;;;;;5.65;3.00;;;5.80;1.00;;;;;;5030742;28;20362;-79
2022/04/19 03:52:58;;;;;;;6.47;3.67;;;5.70;1.00;;;;;;5039815;28;20320;-76
2022/04/19 03:55:24;;;;;;;6.63;4.28;;;5.70;1.00;;;;;;5033844;28;20435;-80
2022/04/19 03:57:51;;;;;;;5.40;3.70;;;5.70;1.00;;;;;;5043141;28;20248;-76
2022/04/19 04:00:21;;;;;;;7.28;4.68;;;5.70;1.00;;;;;;5038528;28;20256;-77
2022/04/19 04:02:51;;;;;;;7.70;3.47;;;5.70;1.00;;;;;;5037600;28;20225;-76
2022/04/19 04:05:19;;;;;;;7.18;4.57;;;5.70;1.00;;;;;;5043060;28;20292;-77
2022/04/19 04:07:48;;;;;;;7.00;3.67;;;5.70;1.00;;;;;;5039936;28;20327;-77
2022/04/19 04:10:17;;;;;;;6.13;4.60;;;5.60;1.00;;;;;;5039106;28;20257;-77
2022/04/19 04:12:43;;;;;;;6.10;3.78;;;5.60;1.00;;;;;;5036417;28;20352;-77
2022/04/19 04:15:10;;;;;;;6.72;3.90;;;5.60;1.00;;;;;;5037113;28;20312;-77
2022/04/19 04:17:41;;;;;;;8.27;3.72;;;5.60;1.00;;;;;;5045444;28;20225;-78
2022/04/19 04:20:10;;;;;;;14.55;6.03;;;5.60;1.00;;;;;;5040201;28;20233;-81
2022/04/19 04:22:41;;;;;;;5.95;4.55;;;5.60;1.00;;;;;;5040248;28;20264;-78
2022/04/19 04:25:08;;;;;;;8.88;4.80;;;5.60;1.00;;;;;;5047858;28;21043;-79
2022/04/19 04:27:38;;;;;;;5.60;4.10;;;5.50;1.00;;;;;;5041943;28;20300;-79
2022/04/19 04:30:06;;;;;;;6.32;4.10;;;5.50;1.00;;;;;;5040238;28;20269;-79
2022/04/19 04:32:32;;;;;;;5.45;3.40;;;5.50;1.00;;;;;;5039808;28;20233;-77
2022/04/19 04:35:01;;;;;;;5.68;4.55;;;5.50;1.00;;;;;;5048026;28;20241;-77
2022/04/19 04:37:28;;;;;;;9.43;4.65;;;5.50;1.00;;;;;;5048826;28;20225;-78
2022/04/19 04:40:00;;;;;;;5.50;4.05;;;5.50;1.00;;;;;;5050112;28;20554;-78
2022/04/19 04:42:26;;;;;;;13.40;5.20;;;5.50;1.00;;;;;;5041094;28;20237;-79
2022/04/19 04:44:53;;;;;;;6.22;4.00;;;5.50;1.00;;;;;;5040196;28;20265;-79
2022/04/19 04:50:08;;;;;;;6.15;4.22;;;5.40;1.00;;;;;;5044873;28;20442;-77
2022/04/19 04:52:34;;;;;;;6.88;4.90;;;5.40;1.00;;;;;;5042817;28;20735;-78
2022/04/19 04:55:05;;;;;;;5.85;3.72;;;5.40;1.00;;;;;;5043442;28;20241;-78
2022/04/19 04:57:32;;;;;;;9.45;4.70;;;5.40;1.00;;;;;;5054491;28;20251;-78
2022/04/19 04:59:58;;;;;;;6.55;4.30;;;5.40;1.00;;;;;;5052652;28;20323;-76
2022/04/19 05:02:25;;;;;;;6.18;4.20;;;5.40;1.00;;;;;;5039815;28;20238;-78
2022/04/19 05:04:52;;;;;;;7.70;4.40;;;5.50;1.00;;;;;;5028703;28;20241;-79
2022/04/19 05:07:20;;;;;;;5.22;3.42;;;5.50;1.00;;;;;;5033042;28;20241;-79
2022/04/19 05:09:51;;;;;;;6.95;4.18;;;5.50;1.00;;;;;;5042552;28;20257;-78
2022/04/19 05:12:22;;;;;;;6.15;4.32;;;5.60;1.00;;;;;;5035871;28;20265;-78
2022/04/19 05:14:48;;;;;;;7.53;3.67;;;5.60;1.00;;;;;;5037253;28;20235;-79
2022/04/19 05:17:15;;;;;;;6.03;4.43;;;5.60;1.00;;;;;;5052290;28;20229;-77
2022/04/19 05:19:41;;;;;;;6.63;4.43;;;5.70;1.00;;;;;;5033738;28;20377;-80
2022/04/19 05:22:12;;;;;;;7.47;4.20;;;5.70;1.00;;;;;;5043559;28;20257;-77
2022/04/19 05:24:40;;;;;;;6.03;4.55;;;5.70;1.00;;;;;;5037821;28;20273;-78
2022/04/19 05:27:11;;;;;;;7.70;4.63;;;5.80;1.00;;;;;;5043726;28;20230;-78
2022/04/19 05:29:42;;;;;;;9.48;5.60;;;5.80;1.00;;;;;;5041660;28;20416;-78
2022/04/19 05:32:12;;;;;;;6.55;4.53;;;5.90;1.00;;;;;;5047560;28;20237;-79
2022/04/19 05:34:42;;;;;;;8.45;4.72;;;5.90;1.00;;;;;;5036823;28;20303;-78
2022/04/19 05:37:12;;;;;;;8.52;4.90;;;5.90;1.00;;;;;;5039988;28;20233;-78
2022/04/19 05:39:45;;;;;;;7.15;4.55;;;6.00;1.00;;;;;;5029261;28;20244;-78
2022/04/19 05:42:12;;;;;;;10.40;5.35;;;6.10;1.00;;;;;;5030796;28;20255;-79
2022/04/19 05:45:03;;;;;;;11.18;6.97;;;6.30;1.00;;;;;;5024112;28;20236;-77
2022/04/19 05:47:33;;;;;;;6.07;4.50;;;6.30;1.00;;;;;;5026073;28;20230;-80
2022/04/19 05:50:03;;;;;;;9.05;5.10;;;6.40;1.00;;;;;;5036209;28;20226;-78
2022/04/19 05:52:32;;;;;;;7.20;4.50;;;6.60;1.00;;;;;;5047605;28;20292;-80
2022/04/19 05:55:11;;;;;;;9.23;6.15;;;6.70;1.00;;;;;;5050753;28;20233;-81
2022/04/19 05:57:42;;;;;;;8.98;4.55;;;6.90;1.00;;;;;;5033596;28;20206;-86
2022/04/19 06:00:14;;;;;;;10.32;5.55;;;7.00;1.00;;;;;;5040386;28;20363;-81
2022/04/19 06:05:31;;;;;;;8.90;5.25;;;7.20;1.00;;;;;;5048914;28;20221;-81
2022/04/19 06:08:03;;;;;;;8.75;5.38;;;7.30;1.00;;;;;;5060622;28;20247;-83
2022/04/19 06:10:33;;;;;;;8.70;4.90;;;7.40;1.00;;;;;;5052827;28;20234;-83
2022/04/19 06:13:04;;;;;;;9.65;5.70;;;7.50;1.00;;;;;;5059218;28;20435;-84
2022/04/19 06:15:44;;;;;;;9.20;5.90;;;7.60;1.00;;;;;;5040158;28;20888;-88
2022/04/19 06:18:12;;;;;;;7.63;5.43;;;7.80;1.00;;;;;;5052059;28;21081;-83
2022/04/19 06:20:54;;;;;;;6.95;5.13;;;7.90;1.00;;;;;;5040165;28;20492;-81
2022/04/19 06:23:23;;;;;;;14.38;10.38;;;7.90;1.00;;;;;;5035765;28;20250;-79
2022/04/19 06:25:52;;;;;;;8.18;5.07;;;8.00;1.00;;;;;;5025494;28;20314;-79
2022/04/19 06:28:27;;;;;;;8.15;5.20;;;8.10;1.00;;;;;;5048186;28;20245;-80
2022/04/19 06:31:02;;;;;;;10.73;4.87;;;8.20;1.00;;;;;;5024102;28;20323;-79
2022/04/19 06:33:33;;;;;;;6.57;4.65;;;8.30;1.00;;;;;;5029708;28;20496;-80
2022/04/19 06:36:03;;;;;;;10.53;5.00;;;8.30;1.00;;;;;;5028365;28;20271;-78
2022/04/19 06:38:32;;;;;;;7.63;5.10;;;8.50;1.00;;;;;;5004539;28;20418;-76
2022/04/19 06:41:14;;;;;;;8.45;5.05;;;8.60;1.00;;;;;;5007653;28;20487;-77
2022/04/19 06:44:03;;;;;;;;;;;;;;;;;;;;;
2022/04/19 06:46:46;;;;;;;8.17;5.10;;;8.70;1.00;;;;;;5020730;28;37820;-80
2022/04/19 06:49:14;;;;;;;8.73;5.63;;;8.90;1.00;;;;;;5066094;28;20635;-80
2022/04/19 06:54:54;;;;;;;9.35;6.40;;;9.10;1.00;;;;;;5022353;28;20348;-82
2022/04/19 07:00:30;;;;;;;9.00;5.10;;;9.20;1.00;;;;;;5046501;28;20241;-80
2022/04/19 07:03:33;;;;;;;8.33;5.70;;;9.40;1.00;;;;;;5048645;28;20435;-78
2022/04/19 07:06:24;;;;;;;;;;;;;;;;;;;;;
2022/04/19 07:08:54;;;;;;;7.43;4.73;;;9.50;1.00;;;;;;4978520;28;49092;-83
2022/04/19 07:11:22;;;;;;;11.93;5.97;;;9.50;1.00;;;;;;5027308;28;20470;-78
2022/04/19 07:14:01;;;;;;;7.43;5.10;;;9.60;1.00;;;;;;5026296;28;20579;-81
2022/04/19 07:16:33;;;;;;;9.07;5.43;;;9.70;1.00;;;;;;5038609;28;20456;-79
2022/04/19 07:19:23;;;;;;;7.23;5.10;;;9.90;1.00;;;;;;5046502;28;20442;-79
2022/04/19 07:27:32;;;;;;;7.97;5.00;;;10.40;1.00;;;;;;5036705;28;20416;-81
2022/04/19 07:30:02;;;;;;;7.20;5.00;;;10.60;1.00;;;;;;5013448;28;20461;-80
2022/04/19 07:32:44;;;;;;;7.90;5.43;;;10.80;1.00;;;;;;4976387;28;20521;-83
2022/04/19 07:35:13;;;;;;;6.80;5.33;;;11.00;1.00;;;;;;5005283;28;20460;-76
2022/04/19 07:37:40;;;;;;;11.63;6.70;;;11.10;1.00;;;;;;5040028;28;20461;-78
2022/04/19 07:40:13;;;;;;;7.23;5.30;;;11.30;1.00;;;;;;5042719;28;20500;-77
2022/04/19 07:42:45;;;;;;;11.50;5.70;;;11.40;1.00;;;;;;5034084;28;20464;-77
2022/04/19 07:45:15;;;;;;;8.63;6.47;;;11.60;1.00;;;;;;5037198;28;21201;-78
2022/04/19 07:47:42;;;;;;;9.30;5.53;;;11.70;1.00;;;;;;5018920;28;20809;-81
2022/04/19 07:50:15;;;;;;;7.70;4.73;;;12.00;1.00;;;;;;5007353;28;20552;-80
2022/04/19 07:52:42;;;;;;;6.90;4.63;;;12.10;1.00;;;;;;5040236;28;20414;-81
2022/04/19 07:55:15;;;;;;;6.20;4.20;;;12.30;1.00;;;;;;5054722;28;20542;-78
2022/04/19 07:57:42;;;;;;;6.87;4.27;;;12.50;1.00;;;;;;5026581;28;20425;-76
2022/04/19 08:00:13;;;;;;;7.50;4.23;;;12.60;1.00;;;;;;5038212;28;20489;-79
2022/04/19 08:02:40;;;;;;;6.80;4.47;;;12.60;1.00;;;;;;5014433;28;20501;-83
2022/04/19 08:05:31;;;;;;;12.40;11.10;;;12.70;1.00;;;;;;5035832;28;20508;-79
2022/04/19 08:08:03;;;;;;;9.80;3.97;;;12.80;1.00;;;;;;5013159;28;20452;-77
2022/04/19 08:13:03;;;;;;;5.00;3.13;;;13.00;1.00;;;;;;5058650;28;20449;-77
2022/04/19 08:15:30;;;;;;;9.10;4.90;;;13.00;1.00;;;;;;5037102;28;21860;-76
2022/04/19 08:18:02;;;;;;;7.00;4.57;;;13.10;1.00;;;;;;5052226;28;20527;-76
2022/04/19 08:20:29;;;;;;;5.30;3.70;;;13.20;1.00;;;;;;5047643;28;21006;-77
2022/04/19 08:22:55;;;;;;;5.67;4.27;;;13.20;1.00;;;;;;5044996;28;20592;-76
2022/04/19 08:25:24;;;;;;;9.97;4.73;;;13.30;1.00;;;;;;5046393;28;20491;-77
2022/04/19 08:27:52;;;;;;;5.30;3.83;;;13.40;1.00;;;;;;5053007;28;20460;-76
2022/04/19 08:30:22;;;;;;;7.30;3.53;;;13.50;1.00;;;;;;5054118;28;20447;-77
2022/04/19 08:32:49;;;;;;;5.00;3.07;;;13.60;1.00;;;;;;5043249;28;20568;-76
2022/04/19 08:35:21;;;;;;;10.20;3.50;;;13.80;1.00;;;;;;5052013;28;23717;-82
2022/04/19 08:37:52;;;;;;;6.00;2.67;;;13.80;1.00;;;;;;5034412;28;20460;-77
2022/04/19 08:40:27;;;;;;;9.03;3.60;;;13.90;1.00;;;;;;5022341;28;21898;-81
2022/04/19 08:43:04;;;;;;;6.60;3.43;;;14.10;1.00;;;;;;5059602;28;21294;-82
2022/04/19 08:45:33;;;;;;;6.73;4.30;;;14.20;1.00;;;;;;5018201;28;20497;-76
2022/04/19 08:48:12;;;;;;;7.03;4.17;;;14.20;1.00;;;;;;5064765;28;21198;-78
2022/04/19 08:50:39;;;;;;;3.93;3.20;;;14.40;1.00;;;;;;5048358;28;20474;-77
2022/04/19 08:58:42;;;;;;;6.00;3.47;;;14.60;1.00;;;;;;5062613;28;20456;-80
2022/04/19 09:01:13;;;;;;;4.43;3.00;;;14.70;1.00;;;;;;5058581;28;20554;-80
2022/04/19 09:03:42;;;;;;;5.00;3.10;;;14.70;1.00;;;;;;5065446;28;20418;-81
2022/04/19 09:06:16;;;;;;;5.63;3.83;;;14.80;1.00;;;;;;5062174;28;20550;-79
2022/04/19 09:09:10;;;;;;;5.80;3.60;;;15.00;1.00;;;;;;5069686;28;20441;-76
2022/04/19 09:11:42;;;;;;;5.63;3.67;;;15.20;1.00;;;;;;5069795;28;20548;-83
2022/04/19 09:14:13;;;;;;;4.83;3.03;;;15.30;1.00;;;;;;5061640;28;20463;-81
2022/04/19 09:16:45;;;;;;;5.27;2.90;;;15.30;1.00;;;;;;5056195;28;20429;-81
2022/04/19 09:19:27;;;;;;;8.33;3.43;;;15.40;1.00;;;;;;5048469;28;20552;-82
2022/04/19 09:21:54;;;;;;;4.63;3.43;;;15.60;1.00;;;;;;5049734;28;20520;-79
2022/04/19 09:24:22;;;;;;;5.17;2.60;;;15.60;1.00;;;;;;5059771;28;20474;-82
2022/04/19 09:26:54;;;;;;;6.53;5.93;;;15.80;1.00;;;;;;5073008;28;20434;-76
2022/04/19 09:29:22;;;;;;;5.70;4.47;;;16.30;1.00;;;;;;5076363;28;20508;-81
2022/04/19 09:31:53;;;;;;;5.43;2.43;;;17.30;1.00;;;;;;5079574;28;20467;-76
2022/04/19 09:34:33;;;;;;;5.70;2.63;;;18.90;1.00;;;;;;5069463;28;20578;-83
2022/04/19 09:37:10;;;;;;;4.33;2.57;;;20.60;1.00;;;;;;5054180;28;20667;-82
2022/04/19 09:39:44;;;;;;;6.93;2.40;;;21.90;1.00;;;;;;5056602;28;20467;-83
2022/04/19 09:42:14;;;;;;;5.30;2.47;;;23.30;1.00;;;;;;5052144;28;20636;-79
2022/04/19 09:44:54;;;;;;;4.97;2.40;;;24.50;1.00;;;;;;5043029;28;21641;-77
2022/04/19 09:47:22;;;;;;;4.40;2.23;;;25.30;1.00;;;;;;5044671;28;20459;-76
2022/04/19 09:49:51;;;;;;;3.57;2.13;;;26.20;1.00;;;;;;5066014;28;20533;-79
2022/04/19 09:52:48;;;;;;;5.27;2.63;;;26.30;1.00;;;;;;5049611;28;20462;-83
2022/04/19 09:55:16;;;;;;;4.37;2.80;;;26.60;1.00;;;;;;5058084;28;20467;-77
2022/04/19 09:57:46;;;;;;;5.30;2.50;;;27.00;1.00;;;;;;5063073;28;20474;-77
2022/04/19 10:00:16;;;;;;;6.27;2.73;;;25.90;1.00;;;;;;5062465;28;20531;-81
2022/04/19 10:08:21;;;;;;;4.00;2.67;;;22.50;1.00;;;;;;5065802;28;21801;-78
2022/04/19 10:10:56;;;;;;;3.53;2.40;;;23.00;1.00;;;;;;5062186;28;20467;-79
2022/04/19 10:13:24;;;;;;;5.97;2.93;;;24.70;1.00;;;;;;5067049;28;21506;-78
2022/04/19 10:15:53;;;;;;;5.60;3.00;;;25.90;1.00;;;;;;5067844;28;20463;-78
2022/04/19 10:18:19;;;;;;;3.37;2.20;;;26.00;1.00;;;;;;5061975;28;20571;-79
2022/04/19 10:20:54;;;;;;;5.33;2.77;;;25.80;1.00;;;;;;5060997;28;20465;-81
2022/04/19 10:23:22;;;;;;;4.80;2.23;;;26.40;1.00;;;;;;5039338;28;21766;-80
2022/04/19 10:25:53;;;;;;;4.93;3.07;;;27.10;1.00;;;;;;5043655;28;20427;-79
2022/04/19 10:28:31;;;;;;;2.70;1.70;;;27.20;1.00;;;;;;5037647;28;20507;-80
2022/04/19 10:31:04;;;;;;;3.70;2.20;;;26.80;1.00;;;;;;5049407;28;20441;-80
2022/04/19 10:33:52;;;;;;;5.20;2.67;;;26.20;1.00;;;;;;5065129;28;20465;-79
2022/04/19 10:36:24;;;;;;;3.90;2.27;;;27.10;1.00;;;;;;5045666;28;20430;-77
2022/04/19 10:39:22;;;;;;;4.23;2.17;;;27.20;1.00;;;;;;5063861;28;20516;-77
2022/04/19 10:41:52;;;;;;;3.13;1.67;;;26.90;1.00;;;;;;5055715;28;20906;-78
2022/04/19 10:44:25;;;;;;;3.40;2.60;;;27.80;1.00;;;;;;5050639;28;20499;-79
2022/04/19 10:47:13;;;;;;;3.80;2.23;;;28.60;1.00;;;;;;5058658;28;20406;-78
2022/04/19 10:50:02;;;;;;;3.60;2.50;;;28.50;1.00;;;;;;5060094;28;20529;-80
2022/04/19 10:52:59;;;;;;;3.40;2.00;;;28.20;1.00;;;;;;5031069;28;20433;-76
2022/04/19 10:55:32;;;;;;;3.10;2.00;;;28.40;1.00;;;;;;5051355;28;21051;-78
2022/04/19 10:58:18;;;;;;;3.30;1.90;;;29.10;1.00;;;;;;5045260;28;20476;-77
2022/04/19 11:00:57;;;;;;;4.20;2.60;;;27.30;1.00;;;;;;5050972;28;21237;-77
2022/04/19 11:03:47;;;;;;;3.10;2.40;;;24.50;1.00;;;;;;5064842;28;21110;-75
2022/04/19 11:06:33;;;;;;;8.17;2.40;;;23.60;1.00;;;;;;5060034;28;20467;-76
2022/04/19 11:09:21;;;;;;;3.10;1.80;;;24.40;1.00;;;;;;5058400;28;20491;-79
2022/04/19 11:11:53;;;;;;;3.90;2.23;;;23.80;1.00;;;;;;5061812;28;20470;-75
2022/04/19 11:14:40;;;;;;;3.33;1.53;;;24.10;1.00;;;;;;5055389;28;20465;-79
2022/04/19 11:17:40;;;;;;;8.27;3.20;;;23.70;1.00;;;;;;5061907;28;20471;-77
2022/04/19 11:20:14;;;;;;;4.97;2.73;;;22.20;1.00;;;;;;5063801;28;20460;-77
2022/04/19 11:22:51;;;;;;;3.67;2.27;;;21.30;1.00;;;;;;5051900;28;20565;-77
2022/04/19 11:25:36;;;;;;;5.57;3.40;;;20.90;1.00;;;;;;5062033;28;21277;-81
2022/04/19 11:28:26;;;;;;;4.80;2.30;;;20.60;1.00;;;;;;5061567;28;20467;-77
2022/04/19 11:31:25;;;;;;;5.60;2.60;;;20.60;1.00;;;;;;5062796;28;20418;-75
2022/04/19 11:33:57;;;;;;;3.47;2.77;;;20.60;1.00;;;;;;4998433;28;20489;-78
2022/04/19 11:36:24;;;;;;;5.90;2.60;;;20.50;1.00;;;;;;5050349;28;20486;-79
2022/04/19 11:38:52;;;;;;;4.77;2.70;;;20.20;1.00;;;;;;5057752;28;22116;-80
2022/04/19 11:46:56;;;;;;;4.90;2.50;;;19.70;1.00;;;;;;5062536;28;20488;-78
2022/04/19 11:49:31;;;;;;;5.00;2.77;;;19.20;1.00;;;;;;5066744;28;20432;-78
2022/04/19 11:52:02;;;;;;;4.17;2.63;;;18.90;1.00;;;;;;5075412;28;20450;-77
2022/04/19 11:54:33;;;;;;;5.70;2.57;;;18.70;1.00;;;;;;5068321;28;20463;-79
2022/04/19 11:57:05;;;;;;;3.30;2.27;;;18.80;1.00;;;;;;5080365;28;20422;-81
2022/04/19 11:59:36;;;;;;;4.27;2.30;;;18.90;1.00;;;;;;5014024;28;20468;-80
2022/04/19 12:02:17;;;;;;;4.17;2.93;;;19.00;1.00;;;;;;5058264;28;20416;-80
2022/04/19 12:05:03;;;;;;;4.20;2.40;;;19.20;1.00;;;;;;5035325;28;20505;-79
2022/04/19 12:07:33;;;;;;;4.13;2.80;;;19.80;1.00;;;;;;5023765;28;20579;-80
2022/04/19 12:10:14;;;;;;;3.17;1.90;;;20.10;1.00;;;;;;5043554;28;20472;-78
2022/04/19 12:12:44;;;;;;;4.07;2.47;;;19.60;1.00;;;;;;5018695;28;20453;-83
2022/04/19 12:15:13;;;;;;;6.27;2.63;;;19.00;1.00;;;;;;5040937;28;20447;-82
2022/04/19 12:17:52;;;;;;;3.70;2.50;;;18.30;1.00;;;;;;5018633;28;21022;-82
2022/04/19 12:20:34;;;;;;;4.93;2.43;;;18.10;1.00;;;;;;5060064;28;20455;-79
2022/04/19 12:23:04;;;;;;;4.07;2.77;;;18.70;1.00;;;;;;5034633;28;21083;-81
2022/04/19 12:25:33;;;;;;;5.77;2.70;;;20.00;1.00;;;;;;5052207;28;20471;-81
2022/04/19 12:28:15;;;;;;;5.40;2.77;;;20.70;1.00;;;;;;5043577;28;22421;-83
2022/04/19 12:30:52;;;;;;;4.80;2.37;;;21.70;1.00;;;;;;5040506;28;21058;-80
2022/04/19 12:33:25;;;;;;;4.20;2.40;;;24.20;1.00;;;;;;5032578;28;20479;-80
2022/04/19 12:36:03;;;;;;;4.30;2.20;;;24.60;1.00;;;;;;5030870;28;20558;-80
2022/04/19 12:38:36;;;;;;;2.87;1.77;;;23.40;1.00;;;;;;5016977;28;20428;-82
2022/04/19 12:41:24;;;;;;;4.50;2.37;;;22.50;1.00;;;;;;5012348;28;20469;-81
2022/04/19 12:46:55;;;;;;;3.30;1.90;;;22.90;1.00;;;;;;5002325;28;20439;-84
2022/04/19 12:49:36;;;;;;;4.30;1.50;;;24.50;1.00;;;;;;5035067;28;20481;-84
2022/04/19 12:52:15;;;;;;;7.20;2.20;;;25.00;1.00;;;;;;5030644;28;20834;-84
2022/04/19 12:54:50;;;;;;;4.37;1.90;;;26.30;1.00;;;;;;5016506;28;20667;-83
2022/04/19 13:00:46;;;;;;;4.57;3.20;;;24.70;1.00;;;;;;5032721;28;20526;-78
2022/04/19 13:03:17;;;;;;;5.23;2.40;;;22.90;1.00;;;;;;5047736;28;20491;-80
2022/04/19 13:14:11;;;;;;;4.10;2.03;;;20.30;1.00;;;;;;4986453;28;20446;-84
2022/04/19 13:16:45;;;;;;;4.33;2.20;;;19.70;1.00;;;;;;4984637;28;20513;-79
2022/04/19 13:19:15;;;;;;;4.77;2.47;;;19.50;1.00;;;;;;4992964;28;20592;-77
2022/04/19 13:21:44;;;;;;;3.80;2.47;;;19.60;1.00;;;;;;4997301;28;20477;-85
2022/04/19 13:24:25;;;;;;;6.63;2.30;;;21.40;1.00;;;;;;4976991;28;20523;-78
2022/04/19 13:26:54;;;;;;;5.60;2.17;;;24.40;1.00;;;;;;4970425;28;21293;-83
2022/04/19 13:29:24;;;;;;;3.83;2.00;;;26.80;1.00;;;;;;5004048;28;20434;-81
2022/04/19 13:31:54;;;;;;;4.47;1.90;;;26.90;1.00;;;;;;4982574;28;20461;-86
2022/04/19 13:34:35;;;;;;;3.77;2.13;;;25.60;1.00;;;;;;5004342;28;20455;-82
2022/04/19 13:37:05;;;;;;;3.43;2.23;;;24.20;1.00;;;;;;4941907;28;20521;-82
2022/04/19 13:39:35;;;;;;;3.20;2.30;;;23.10;1.00;;;;;;4962800;28;20475;-77
2022/04/19 13:42:04;;;;;;;3.03;1.80;;;22.20;1.00;;;;;;4985619;28;20738;-82
2022/04/19 13:44:31;;;;;;;4.70;2.00;;;21.30;1.00;;;;;;4954893;28;20466;-80
2022/04/19 13:47:04;;;;;;;3.73;2.30;;;21.00;1.00;;;;;;4969640;28;20444;-83
2022/04/19 13:49:31;;;;;;;3.10;1.90;;;21.00;1.00;;;;;;4979869;28;20962;-80
2022/04/19 13:52:22;;;;;;;3.13;1.87;;;20.80;1.00;;;;;;5000107;28;20451;-82
2022/04/19 13:54:52;;;;;;;3.50;1.93;;;20.40;1.00;;;;;;4996337;28;20484;-82
2022/04/19 13:57:23;;;;;;;2.73;1.70;;;20.80;1.00;;;;;;5008079;28;20431;-79
2022/04/19 13:59:50;;;;;;;3.00;2.20;;;22.20;1.00;;;;;;5007482;28;20459;-83
2022/04/19 14:02:26;;;;;;;;;;;;;;;;;;;;;
2022/04/19 14:04:53;;;;;;;2.73;1.43;;;23.90;1.00;;;;;;4963198;28;50268;-77
2022/04/19 14:07:32;;;;;;;3.87;1.90;;;24.20;1.00;;;;;;4965071;28;20489;-80
2022/04/19 14:10:15;;;;;;;5.23;2.07;;;23.20;1.00;;;;;;4997576;28;20468;-79
2022/04/19 14:12:46;;;;;;;3.90;2.10;;;21.90;1.00;;;;;;4986145;28;20429;-78
2022/04/19 14:15:15;;;;;;;3.20;2.20;;;20.50;1.00;;;;;;4975130;28;21655;-86
2022/04/19 14:17:44;;;;;;;3.60;2.10;;;19.40;1.00;;;;;;4994646;28;20457;-85
2022/04/19 14:20:23;;;;;;;3.27;2.00;;;18.70;1.00;;;;;;4983394;28;20569;-83
2022/04/19 14:22:53;;;;;;;7.57;3.73;;;18.50;1.00;;;;;;5004636;28;20468;-79
2022/04/19 14:25:25;;;;;;;4.53;2.37;;;18.40;1.00;;;;;;4998783;28;20546;-79
2022/04/19 14:27:52;;;;;;;2.90;2.00;;;20.10;1.00;;;;;;5005052;28;20531;-86
2022/04/19 14:33:18;;;;;;;2.80;1.97;;;23.30;1.00;;;;;;4974001;28;20471;-77